Tuckerton, Pennsylvania
Current Conditions -  °F | °C
As of 7:54 AM on Friday 28 Nov 2014 (Local Time) from KRDG Reporting Station
Clear Clear  
Wind Chill: 24°   Ceiling: Unl
Heat Index: 32°   Visibility: 10mi
Dew Point: 21°   Wind: 9mph
Humidity: 64%   Direction: 320°NW
Pressure: 30.21"   Gusts: NA
Location:  40.3999°N, 75.9335°W
Report Text: KRDG 281254Z 32008KT 10SM CLR 00/M06 A3021 RMK AO2 SLP239 T00001061
Loading
Personal Weather Stations






























Interactive Weather Map New forecast layout! Learn more

10-Day Weather Forecast

Advertisements
Track Severe Weather on mobile